createdAt,value
2018-05-23T00:01:50.105Z,97900.13
2018-05-23T00:04:17.153Z,97905.88
2018-05-23T00:06:44.937Z,97899.17
2018-05-23T00:09:11.990Z,97908.77
2018-05-23T00:11:39.006Z,97912.30
2018-05-23T00:14:06.023Z,97922.03
2018-05-23T00:16:33.043Z,97912.28
2018-05-23T00:19:00.092Z,97915.76
2018-05-23T00:21:27.252Z,97917.23
2018-05-23T00:23:54.428Z,97923.61
2018-05-23T00:26:21.847Z,97926.17
2018-05-23T00:28:49.098Z,97920.66
2018-05-23T00:31:16.233Z,97929.00
2018-05-23T00:33:43.359Z,97926.88
2018-05-23T00:36:10.439Z,97921.92
2018-05-23T00:38:37.472Z,97927.31
2018-05-23T00:41:04.497Z,97924.74
2018-05-23T00:43:32.049Z,97927.01
2018-05-23T00:45:59.199Z,97918.77
2018-05-23T00:48:26.204Z,97923.48
2018-05-23T00:50:53.278Z,97922.95
2018-05-23T00:53:20.403Z,97913.77
2018-05-23T00:55:47.594Z,97912.86
2018-05-23T00:58:14.739Z,97920.52
2018-05-23T01:00:41.882Z,97917.33
2018-05-23T01:03:08.975Z,97918.45
2018-05-23T01:05:36.270Z,97905.94
2018-05-23T01:08:03.451Z,97907.33
2018-05-23T01:10:30.748Z,97908.20
2018-05-23T01:12:57.817Z,97909.34
2018-05-23T01:15:25.244Z,97904.92
2018-05-23T01:17:52.258Z,97905.56
2018-05-23T01:20:19.425Z,97910.22
2018-05-23T01:22:46.600Z,97913.19
2018-05-23T01:25:13.720Z,97911.09
2018-05-23T01:27:40.964Z,97909.17
2018-05-23T01:30:08.140Z,97903.76
2018-05-23T01:32:35.203Z,97898.84
2018-05-23T01:35:02.235Z,97899.71
2018-05-23T01:37:29.243Z,97892.88
2018-05-23T01:39:56.258Z,97900.45
2018-05-23T01:42:23.449Z,97903.45
2018-05-23T01:44:50.818Z,97896.83
2018-05-23T01:47:17.849Z,97900.39
2018-05-23T01:49:44.900Z,97904.52
2018-05-23T01:52:11.918Z,97902.55
2018-05-23T01:54:38.944Z,97905.45
2018-05-23T01:57:06.029Z,97909.66
2018-05-23T01:59:33.149Z,97904.84
2018-05-23T02:02:00.280Z,97909.67
2018-05-23T02:04:27.284Z,97907.16
2018-05-23T02:06:54.738Z,97905.17
2018-05-23T02:09:21.838Z,97914.57
2018-05-23T02:11:49.005Z,97918.21
2018-05-23T02:14:16.214Z,97922.13
2018-05-23T02:16:43.284Z,97916.59
2018-05-23T02:19:10.554Z,97919.75
2018-05-23T02:21:37.725Z,97922.16
2018-05-23T02:24:04.785Z,97926.98
2018-05-23T02:26:31.984Z,97927.53
2018-05-23T02:28:59.042Z,97928.48
2018-05-23T02:31:26.062Z,97929.14
2018-05-23T02:33:53.221Z,97920.73
2018-05-23T02:36:20.307Z,97913.13
2018-05-23T02:38:47.335Z,97911.63
2018-05-23T02:41:14.355Z,97909.87
2018-05-23T02:43:41.467Z,97909.73
2018-05-23T02:46:08.605Z,97911.09
2018-05-23T02:48:35.614Z,97907.06
2018-05-23T02:51:02.679Z,97906.97
2018-05-23T02:53:29.928Z,97899.30
2018-05-23T02:55:57.074Z,97904.19
2018-05-23T02:58:24.115Z,97904.83
2018-05-23T03:00:51.332Z,97913.22
2018-05-23T03:03:18.439Z,97907.57
2018-05-23T03:05:45.508Z,97903.39
2018-05-23T03:08:12.535Z,97902.73
2018-05-23T03:10:39.744Z,97897.40
2018-05-23T03:13:06.805Z,97892.05
2018-05-23T03:15:33.917Z,97884.09
2018-05-23T03:18:01.161Z,97885.29
2018-05-23T03:20:28.264Z,97891.84
2018-05-23T03:22:55.341Z,97897.06
2018-05-23T03:25:22.369Z,97911.39
2018-05-23T03:27:49.554Z,97914.73
2018-05-23T03:30:16.586Z,97911.61
2018-05-23T03:32:43.848Z,97916.56
2018-05-23T03:35:10.915Z,97908.86
2018-05-23T03:37:38.028Z,97911.65
2018-05-23T03:40:05.716Z,97916.06
2018-05-23T03:42:33.012Z,97923.30
2018-05-23T03:45:00.096Z,97923.05
2018-05-23T03:47:27.300Z,97923.72
2018-05-23T03:49:54.608Z,97923.52
2018-05-23T03:52:21.741Z,97934.09
2018-05-23T03:54:49.090Z,97938.69
2018-05-23T03:57:16.214Z,97943.55
2018-05-23T03:59:49.213Z,97942.30
2018-05-23T04:02:22.300Z,97937.14
2018-05-23T04:04:55.522Z,97943.23
2018-05-23T04:07:28.779Z,97943.64
2018-05-23T04:09:55.915Z,97948.28
2018-05-23T04:12:23.215Z,97946.92
2018-05-23T04:14:50.790Z,97952.30
2018-05-23T04:17:18.085Z,97958.02
2018-05-23T04:19:45.295Z,97955.09
2018-05-23T04:22:12.917Z,97962.98
2018-05-23T04:24:40.001Z,97967.52
2018-05-23T04:27:07.106Z,97971.30
2018-05-23T04:29:34.285Z,97975.69
2018-05-23T04:32:01.466Z,97979.38
2018-05-23T04:34:28.690Z,97975.34
2018-05-23T04:36:55.863Z,97980.11
2018-05-23T04:39:22.906Z,97983.57
2018-05-23T04:41:49.954Z,97991.11
2018-05-23T04:44:17.055Z,97989.42
2018-05-23T04:46:44.116Z,97989.13
2018-05-23T04:49:11.421Z,97991.42
2018-05-23T04:51:38.416Z,97995.00
2018-05-23T04:54:05.427Z,97993.21
2018-05-23T04:56:32.495Z,98002.18
2018-05-23T04:58:59.604Z,98013.14
2018-05-23T05:01:26.596Z,98014.77
2018-05-23T05:03:53.649Z,98016.78
2018-05-23T05:06:20.635Z,98015.05
2018-05-23T05:08:47.671Z,98016.09
2018-05-23T05:11:14.691Z,98025.36
2018-05-23T05:13:42.650Z,98021.73
2018-05-23T05:16:09.554Z,98026.93
2018-05-23T05:18:36.554Z,98021.28
2018-05-23T05:21:03.630Z,98022.64
2018-05-23T05:23:30.841Z,98030.64
2018-05-23T05:25:58.057Z,98032.88
2018-05-23T05:28:25.114Z,98032.94
2018-05-23T05:30:52.333Z,98038.36
2018-05-23T05:33:19.585Z,98040.84
2018-05-23T05:35:46.757Z,98046.67
2018-05-23T05:38:13.765Z,98049.11
2018-05-23T05:40:40.932Z,98056.16
2018-05-23T05:43:08.121Z,98052.27
2018-05-23T05:45:35.140Z,98057.33
2018-05-23T05:48:02.210Z,98055.66
2018-05-23T05:50:29.321Z,98057.94
2018-05-23T05:52:56.491Z,98063.63
2018-05-23T05:55:23.706Z,98069.57
2018-05-23T05:57:50.781Z,98074.13
2018-05-23T06:00:18.234Z,98080.00
2018-05-23T06:02:45.382Z,98083.87
2018-05-23T06:05:12.404Z,98082.88
2018-05-23T06:07:39.502Z,98084.92
2018-05-23T06:10:06.621Z,98094.41
2018-05-23T06:12:33.880Z,98101.63
2018-05-23T06:15:01.204Z,98103.97
2018-05-23T06:17:28.359Z,98111.23
2018-05-23T06:19:55.415Z,98105.80
2018-05-23T06:22:22.699Z,98107.27
2018-05-23T06:24:49.960Z,98107.12
2018-05-23T06:27:17.188Z,98113.15
2018-05-23T06:29:44.635Z,98117.45
2018-05-23T06:32:11.757Z,98115.03
2018-05-23T06:34:38.863Z,98116.83
2018-05-23T06:37:06.025Z,98117.64
2018-05-23T06:39:33.252Z,98111.41
2018-05-23T06:42:00.297Z,98122.16
2018-05-23T06:44:27.496Z,98122.32
2018-05-23T06:46:54.891Z,98116.70
2018-05-23T06:49:21.931Z,98122.27
2018-05-23T06:51:49.078Z,98124.51
2018-05-23T06:54:16.518Z,98134.31
2018-05-23T06:56:43.867Z,98130.66
2018-05-23T06:59:10.986Z,98131.66
2018-05-23T07:01:38.145Z,98139.63
2018-05-23T07:04:05.246Z,98139.28
2018-05-23T07:06:32.350Z,98145.42
2018-05-23T07:08:59.885Z,98149.58
2018-05-23T07:11:27.071Z,98149.19
2018-05-23T07:13:54.205Z,98155.52
2018-05-23T07:16:21.506Z,98160.41
2018-05-23T07:18:48.767Z,98162.73
2018-05-23T07:21:15.962Z,98160.79
2018-05-23T07:23:43.044Z,98164.86
2018-05-23T07:26:10.096Z,98167.41
2018-05-23T07:28:37.089Z,98169.48
2018-05-23T07:31:04.291Z,98175.74
2018-05-23T07:33:31.341Z,98175.96
2018-05-23T07:35:58.413Z,98179.08
2018-05-23T07:38:25.555Z,98174.49
2018-05-23T07:40:52.650Z,98179.86
2018-05-23T07:43:19.668Z,98180.19
2018-05-23T07:45:46.737Z,98179.54
2018-05-23T07:48:13.803Z,98188.48
2018-05-23T07:50:40.936Z,98189.22
2018-05-23T07:53:07.995Z,98189.50
2018-05-23T07:55:35.052Z,98186.31
2018-05-23T07:58:02.133Z,98189.18
2018-05-23T08:00:29.150Z,98190.53
2018-05-23T08:02:56.324Z,98189.90
2018-05-23T08:05:23.373Z,98194.74
2018-05-23T08:07:50.482Z,98193.57
2018-05-23T08:10:17.944Z,98193.56
2018-05-23T08:12:45.011Z,98197.77
2018-05-23T08:15:12.147Z,98192.72
2018-05-23T08:17:39.170Z,98201.95
2018-05-23T08:20:06.192Z,98198.25
2018-05-23T08:22:33.316Z,98202.13
2018-05-23T08:25:00.873Z,98203.00
2018-05-23T08:27:27.922Z,98203.77
2018-05-23T08:29:55.009Z,98207.39
2018-05-23T08:32:22.112Z,98205.94
2018-05-23T08:34:49.307Z,98201.91
2018-05-23T08:37:16.372Z,98206.81
2018-05-23T08:39:43.522Z,98209.30
2018-05-23T08:42:10.568Z,98209.16
2018-05-23T08:44:37.648Z,98217.47
2018-05-23T08:47:04.840Z,98218.04
2018-05-23T08:49:31.952Z,98219.59
2018-05-23T08:51:59.425Z,98220.14
2018-05-23T08:54:26.557Z,98220.86
2018-05-23T08:56:53.581Z,98229.20
2018-05-23T08:59:20.733Z,98229.56
2018-05-23T09:01:47.777Z,98232.44
2018-05-23T09:04:14.849Z,98234.97
2018-05-23T09:06:41.891Z,98235.52
2018-05-23T09:09:08.978Z,98234.61
2018-05-23T09:11:36.117Z,98232.72
2018-05-23T09:14:03.426Z,98234.17
2018-05-23T09:16:30.457Z,98239.33
2018-05-23T09:18:58.300Z,98239.93
2018-05-23T09:21:25.572Z,98245.13
2018-05-23T09:23:52.632Z,98237.68
2018-05-23T09:26:19.868Z,98240.89
2018-05-23T09:28:46.901Z,98236.97
2018-05-23T09:31:14.153Z,98243.42
2018-05-23T09:33:41.262Z,98246.41
2018-05-23T09:36:08.516Z,98246.33
2018-05-23T09:38:35.562Z,98242.20
2018-05-23T09:41:02.650Z,98248.96
2018-05-23T09:43:29.712Z,98248.44
2018-05-23T09:45:57.083Z,98250.82
2018-05-23T09:48:24.125Z,98256.27
2018-05-23T09:50:51.451Z,98253.19
2018-05-23T09:53:18.597Z,98257.38
2018-05-23T09:55:45.772Z,98253.70
2018-05-23T09:58:12.996Z,98255.19
2018-05-23T10:00:40.633Z,98253.27
2018-05-23T10:03:07.667Z,98254.17
2018-05-23T10:05:34.667Z,98252.06
2018-05-23T10:08:02.341Z,98248.40
2018-05-23T10:10:29.562Z,98259.99
2018-05-23T10:12:56.587Z,98247.39
2018-05-23T10:15:24.703Z,98250.05
2018-05-23T10:17:51.968Z,98243.19
2018-05-23T10:20:19.057Z,98241.58
2018-05-23T10:22:46.292Z,98242.37
2018-05-23T10:25:13.550Z,98238.55
2018-05-23T10:27:40.583Z,98247.02
2018-05-23T10:30:07.689Z,98249.50
2018-05-23T10:32:34.898Z,98255.63
2018-05-23T10:35:01.897Z,98251.30
2018-05-23T10:37:29.157Z,98248.45
2018-05-23T10:39:56.182Z,98242.98
2018-05-23T10:42:23.258Z,98248.27
2018-05-23T10:44:50.804Z,98246.53
2018-05-23T10:47:18.393Z,98239.12
2018-05-23T10:49:45.969Z,98240.49
2018-05-23T10:52:13.557Z,98232.52
2018-05-23T10:54:41.017Z,98235.87
2018-05-23T10:57:08.655Z,98241.03
2018-05-23T10:59:36.267Z,98237.14
2018-05-23T11:02:03.717Z,98238.60
2018-05-23T11:04:31.251Z,98241.75
2018-05-23T11:06:58.687Z,98236.98
2018-05-23T11:09:26.359Z,98239.40
2018-05-23T11:11:54.273Z,98236.67
2018-05-23T11:14:21.944Z,98244.72
2018-05-23T11:16:49.775Z,98239.94
2018-05-23T11:19:17.572Z,98240.09
2018-05-23T11:21:45.485Z,98236.22
2018-05-23T11:24:13.368Z,98237.58
2018-05-23T11:26:41.029Z,98235.47
2018-05-23T11:29:08.504Z,98241.59
2018-05-23T11:31:36.068Z,98227.06
2018-05-23T11:34:03.550Z,98222.00
2018-05-23T11:36:31.158Z,98222.09
2018-05-23T11:38:58.698Z,98219.13
2018-05-23T11:41:26.520Z,98218.70
2018-05-23T11:43:54.288Z,98215.95
2018-05-23T11:46:21.854Z,98208.73
2018-05-23T11:48:49.659Z,98210.59
2018-05-23T11:51:17.283Z,98198.68
2018-05-23T11:53:44.763Z,98201.28
2018-05-23T11:56:12.403Z,98199.19
2018-05-23T11:58:39.899Z,98192.22
2018-05-23T12:01:07.365Z,98186.27
2018-05-23T12:03:34.877Z,98181.77
2018-05-23T12:06:02.353Z,98176.42
2018-05-23T12:08:30.173Z,98167.34
2018-05-23T12:10:57.787Z,98166.14
2018-05-23T12:13:25.414Z,98165.92
2018-05-23T12:15:53.080Z,98163.20
2018-05-23T12:18:20.630Z,98152.25
2018-05-23T12:20:48.148Z,98148.63
2018-05-23T12:23:15.848Z,98143.63
2018-05-23T12:25:43.427Z,98146.33
2018-05-23T12:28:10.987Z,98138.64
2018-05-23T12:30:38.741Z,98142.91
2018-05-23T12:33:06.198Z,98133.40
2018-05-23T12:35:33.773Z,98129.45
2018-05-23T12:38:01.390Z,98131.88
2018-05-23T12:40:28.997Z,98134.83
2018-05-23T12:42:56.564Z,98137.25
2018-05-23T12:45:24.295Z,98133.39
2018-05-23T12:47:51.875Z,98139.83
2018-05-23T12:50:19.343Z,98139.02
2018-05-23T12:52:46.928Z,98139.75
2018-05-23T12:55:14.579Z,98139.75
2018-05-23T12:57:42.576Z,98136.92
2018-05-23T13:00:10.483Z,98135.28
2018-05-23T13:02:37.620Z,98133.49
2018-05-23T13:05:05.206Z,98132.37
2018-05-23T13:07:33.044Z,98138.59
2018-05-23T13:10:00.240Z,98130.44
2018-05-23T13:12:27.417Z,98130.09
2018-05-23T13:14:54.958Z,98124.20
2018-05-23T13:17:22.173Z,98129.16
2018-05-23T13:19:49.829Z,98120.08
2018-05-23T13:22:17.389Z,98117.04
2018-05-23T13:24:45.093Z,98114.70
2018-05-23T13:27:12.133Z,98112.22
2018-05-23T13:29:39.853Z,98099.33
2018-05-23T13:32:07.348Z,98101.38
2018-05-23T13:34:34.839Z,98098.09
2018-05-23T13:37:02.353Z,98093.34
2018-05-23T13:39:29.595Z,98091.00
2018-05-23T13:41:57.397Z,98093.19
2018-05-23T13:44:24.460Z,98086.22
2018-05-23T13:46:52.385Z,98079.67
2018-05-23T13:49:19.448Z,98079.47
2018-05-23T13:51:46.574Z,98074.69
2018-05-23T13:54:13.579Z,98074.91
2018-05-23T13:56:40.886Z,98073.80
2018-05-23T13:59:08.039Z,98070.45
2018-05-23T14:01:35.700Z,98061.22
2018-05-23T14:04:02.793Z,98059.00
2018-05-23T14:06:29.961Z,98063.60
2018-05-23T14:08:57.630Z,98059.27
2018-05-23T14:11:24.716Z,98056.20
2018-05-23T14:13:51.794Z,98058.98
2018-05-23T14:16:19.319Z,98056.88
2018-05-23T14:18:46.935Z,98061.47
2018-05-23T14:21:14.584Z,98060.75
2018-05-23T14:23:42.153Z,98051.54
2018-05-23T14:26:09.154Z,98053.36
2018-05-23T14:28:36.826Z,98048.52
2018-05-23T14:31:03.829Z,98044.22
2018-05-23T14:33:30.929Z,98049.84
2018-05-23T14:35:58.555Z,98040.14
2018-05-23T14:38:25.696Z,98039.05
2018-05-23T14:40:53.173Z,98044.09
2018-05-23T14:43:20.333Z,98042.80
2018-05-23T14:45:47.444Z,98042.03
2018-05-23T14:48:14.535Z,98034.05
2018-05-23T14:50:41.688Z,98028.09
2018-05-23T14:53:08.749Z,98032.34
2018-05-23T14:55:35.964Z,98037.66
2018-05-23T14:58:03.303Z,98039.56
2018-05-23T15:00:30.494Z,98046.85
2018-05-23T15:02:58.458Z,98027.29
2018-05-23T15:05:26.074Z,98024.34
2018-05-23T15:07:53.725Z,98024.55
2018-05-23T15:10:21.444Z,98023.35
2018-05-23T15:12:49.117Z,98020.66
2018-05-23T15:15:16.767Z,98019.77
2018-05-23T15:17:44.275Z,98017.22
2018-05-23T15:20:12.155Z,98011.94
2018-05-23T15:22:39.813Z,98012.88
2018-05-23T15:25:07.300Z,98022.92
2018-05-23T15:27:35.026Z,98016.73
2018-05-23T15:30:03.393Z,98022.27
2018-05-23T15:32:31.119Z,98029.94
2018-05-23T15:34:58.711Z,98028.19
2018-05-23T15:37:26.375Z,98037.58
2018-05-23T15:39:54.069Z,98040.41
2018-05-23T15:42:21.828Z,98028.82
2018-05-23T15:44:49.548Z,98029.55
2018-05-23T15:47:17.080Z,98020.48
2018-05-23T15:49:44.329Z,98016.94
2018-05-23T15:52:11.711Z,98018.73
2018-05-23T15:54:38.816Z,98026.53
2018-05-23T15:57:06.000Z,98022.24
2018-05-23T15:59:33.198Z,98015.15
2018-05-23T16:02:00.693Z,98017.02
2018-05-23T16:04:28.165Z,98006.95
2018-05-23T16:06:55.985Z,98013.70
2018-05-23T16:09:23.853Z,98009.94
2018-05-23T16:11:51.296Z,98015.67
2018-05-23T16:14:18.826Z,98011.14
2018-05-23T16:16:46.290Z,98011.55
2018-05-23T16:19:13.916Z,98011.34
2018-05-23T16:21:41.534Z,98008.00
2018-05-23T16:24:09.041Z,98010.55
2018-05-23T16:26:36.134Z,98010.55
2018-05-23T16:29:03.459Z,98014.12
2018-05-23T16:31:30.556Z,98014.86
2018-05-23T16:33:57.896Z,98015.25
2018-05-23T16:36:25.789Z,98020.37
2018-05-23T16:38:53.499Z,98025.11
2018-05-23T16:41:20.886Z,98019.17
2018-05-23T16:43:48.024Z,98024.69
2018-05-23T16:46:15.159Z,98024.70
2018-05-23T16:48:42.491Z,98027.47
2018-05-23T16:51:09.652Z,98026.11
2018-05-23T16:53:37.315Z,98031.03
2018-05-23T16:56:04.807Z,98032.05
2018-05-23T16:58:32.774Z,98024.33
2018-05-23T17:01:01.100Z,98028.30
2018-05-23T17:03:28.140Z,98025.73
2018-05-23T17:05:56.666Z,98025.95
2018-05-23T17:08:23.689Z,98025.59
2018-05-23T17:10:50.950Z,98018.06
2018-05-23T17:13:18.815Z,98021.63
2018-05-23T17:15:46.805Z,98021.81
2018-05-23T17:18:14.684Z,98021.23
2018-05-23T17:20:42.251Z,98024.38
2018-05-23T17:23:09.874Z,98027.69
2018-05-23T17:25:37.001Z,98027.80
2018-05-23T17:28:04.789Z,98035.33
2018-05-23T17:30:32.118Z,98055.16
2018-05-23T17:32:59.856Z,98061.15
2018-05-23T17:35:26.941Z,98066.12
2018-05-23T17:37:54.176Z,98062.61
2018-05-23T17:40:21.251Z,98064.71
2018-05-23T17:42:48.339Z,98057.75
2018-05-23T17:45:15.440Z,98055.59
2018-05-23T17:47:42.750Z,98054.09
2018-05-23T17:50:09.822Z,98056.62
2018-05-23T17:52:37.131Z,98052.66
2018-05-23T17:55:04.931Z,98051.38
2018-05-23T17:57:32.021Z,98053.21
2018-05-23T17:59:59.211Z,98054.88
2018-05-23T18:02:26.966Z,98060.09
2018-05-23T18:04:54.093Z,98059.39
2018-05-23T18:07:21.135Z,98057.39
2018-05-23T18:09:48.221Z,98053.80
2018-05-23T18:12:15.514Z,98060.29
2018-05-23T18:14:42.820Z,98055.01
2018-05-23T18:17:10.130Z,98064.75
2018-05-23T18:19:37.450Z,98061.82
2018-05-23T18:22:04.719Z,98068.38
2018-05-23T18:24:31.906Z,98059.06
2018-05-23T18:26:59.313Z,98069.20
2018-05-23T18:29:26.468Z,98067.98
2018-05-23T18:31:53.386Z,98078.07
2018-05-23T18:34:21.351Z,98079.48
2018-05-23T18:36:48.545Z,98088.56
2018-05-23T18:39:15.545Z,98090.13
2018-05-23T18:41:42.884Z,98096.59
2018-05-23T18:44:10.104Z,98091.80
2018-05-23T18:46:37.280Z,98091.77
2018-05-23T18:49:04.672Z,98094.37
2018-05-23T18:51:32.013Z,98090.92
2018-05-23T18:53:59.187Z,98095.84
2018-05-23T18:56:26.717Z,98098.16
2018-05-23T18:58:53.715Z,98102.14
2018-05-23T19:01:21.581Z,98109.97
2018-05-23T19:03:48.822Z,98110.69
2018-05-23T19:06:16.006Z,98113.93
2018-05-23T19:08:43.104Z,98120.66
2018-05-23T19:11:10.403Z,98118.91
2018-05-23T19:13:37.508Z,98124.77
2018-05-23T19:16:04.578Z,98127.05
2018-05-23T19:18:31.738Z,98132.28
2018-05-23T19:20:58.784Z,98129.26
2018-05-23T19:23:26.655Z,98131.21
2018-05-23T19:25:53.722Z,98138.82
2018-05-23T19:28:20.798Z,98144.13
2018-05-23T19:30:47.961Z,98135.70
2018-05-23T19:33:15.216Z,98142.14
2018-05-23T19:35:42.407Z,98139.77
2018-05-23T19:38:09.724Z,98140.28
2018-05-23T19:40:36.960Z,98138.29
2018-05-23T19:43:04.020Z,98137.02
2018-05-23T19:45:31.214Z,98137.84
2018-05-23T19:47:58.261Z,98129.56
2018-05-23T19:50:25.406Z,98133.16
2018-05-23T19:52:52.836Z,98137.42
2018-05-23T19:55:20.048Z,98137.77
2018-05-23T19:57:47.396Z,98138.23
2018-05-23T20:00:14.706Z,98138.80
2018-05-23T20:02:41.887Z,98140.77
2018-05-23T20:05:09.048Z,98140.22
2018-05-23T20:07:36.287Z,98143.05
2018-05-23T20:10:03.703Z,98143.91
2018-05-23T20:12:30.857Z,98145.70
2018-05-23T20:14:58.196Z,98147.72
2018-05-23T20:17:25.293Z,98146.00
2018-05-23T20:19:52.306Z,98153.55
2018-05-23T20:22:20.088Z,98148.48
2018-05-23T20:24:47.282Z,98143.94
2018-05-23T20:27:14.694Z,98150.45
2018-05-23T20:29:41.876Z,98144.62
2018-05-23T20:32:08.997Z,98145.34
2018-05-23T20:34:36.497Z,98137.44
2018-05-23T20:37:03.612Z,98128.55
2018-05-23T20:39:30.800Z,98127.07
2018-05-23T20:41:58.175Z,98130.77
2018-05-23T20:44:25.408Z,98128.14
2018-05-23T20:46:52.532Z,98129.45
2018-05-23T20:49:19.608Z,98130.57
2018-05-23T20:51:46.643Z,98134.05
2018-05-23T20:54:13.636Z,98136.02
2018-05-23T20:56:40.771Z,98145.66
2018-05-23T20:59:09.071Z,98142.81
2018-05-23T21:01:36.290Z,98149.52
2018-05-23T21:04:03.576Z,98152.29
2018-05-23T21:06:30.727Z,98160.64
2018-05-23T21:08:57.841Z,98163.42
2018-05-23T21:11:25.067Z,98157.20
2018-05-23T21:13:52.389Z,98164.09
2018-05-23T21:16:19.468Z,98161.80
2018-05-23T21:18:46.541Z,98164.08
2018-05-23T21:21:13.567Z,98173.46
2018-05-23T21:23:40.813Z,98169.31
2018-05-23T21:26:08.071Z,98173.96
2018-05-23T21:28:35.192Z,98168.09
2018-05-23T21:31:02.593Z,98168.84
2018-05-23T21:33:29.780Z,98161.16
2018-05-23T21:35:57.143Z,98155.48
2018-05-23T21:38:24.825Z,98158.56
2018-05-23T21:40:52.065Z,98153.20
2018-05-23T21:43:19.173Z,98146.31
2018-05-23T21:45:46.357Z,98149.51
2018-05-23T21:48:13.532Z,98145.32
2018-05-23T21:50:40.848Z,98140.11
2018-05-23T21:53:07.953Z,98145.22
2018-05-23T21:55:35.353Z,98145.44
2018-05-23T21:58:02.648Z,98146.03
2018-05-23T22:00:29.887Z,98145.16
2018-05-23T22:02:57.156Z,98143.92
2018-05-23T22:05:24.328Z,98145.56
2018-05-23T22:07:52.266Z,98148.14
2018-05-23T22:10:19.267Z,98146.41
2018-05-23T22:12:46.353Z,98144.09
2018-05-23T22:15:13.581Z,98145.33
2018-05-23T22:17:40.741Z,98142.77
2018-05-23T22:20:08.120Z,98145.01
2018-05-23T22:22:35.261Z,98141.27
2018-05-23T22:25:02.518Z,98134.50
2018-05-23T22:27:29.888Z,98133.56
2018-05-23T22:29:57.136Z,98133.22
2018-05-23T22:32:24.257Z,98137.62
2018-05-23T22:34:51.481Z,98143.52
2018-05-23T22:37:18.822Z,98140.66
2018-05-23T22:39:46.154Z,98137.58
2018-05-23T22:42:13.466Z,98141.77
2018-05-23T22:44:40.691Z,98149.69
2018-05-23T22:47:07.976Z,98146.80
2018-05-23T22:49:35.224Z,98140.61
2018-05-23T22:52:02.522Z,98140.35
2018-05-23T22:54:29.893Z,98141.80
2018-05-23T22:56:57.093Z,98132.71
2018-05-23T22:59:24.468Z,98134.61
2018-05-23T23:01:51.508Z,98131.22
2018-05-23T23:04:18.786Z,98136.02
2018-05-23T23:06:45.797Z,98142.11
2018-05-23T23:09:13.594Z,98138.01
2018-05-23T23:11:40.703Z,98147.61
2018-05-23T23:14:07.963Z,98148.06
2018-05-23T23:16:35.200Z,98147.42
2018-05-23T23:19:02.604Z,98136.30
2018-05-23T23:21:29.879Z,98150.39
2018-05-23T23:23:57.202Z,98156.41
2018-05-23T23:26:24.316Z,98156.16
2018-05-23T23:28:51.482Z,98162.09
2018-05-23T23:31:18.679Z,98161.55
2018-05-23T23:33:45.912Z,98161.08
2018-05-23T23:36:13.027Z,98164.27
2018-05-23T23:38:40.248Z,98161.89
2018-05-23T23:41:07.563Z,98153.55
2018-05-23T23:43:35.593Z,98156.69
2018-05-23T23:46:02.833Z,98161.03
2018-05-23T23:48:29.948Z,98163.84
2018-05-23T23:50:56.964Z,98172.99
2018-05-23T23:53:24.328Z,98170.61
2018-05-23T23:55:51.485Z,98181.13
2018-05-23T23:58:18.902Z,98186.31
